createdAt,value
2017-06-28T00:01:44.355Z,19.10
2017-06-28T00:04:10.702Z,19.10
2017-06-28T00:06:37.358Z,19.10
2017-06-28T00:09:03.744Z,19.00
2017-06-28T00:11:30.077Z,19.00
2017-06-28T00:13:56.432Z,19.00
2017-06-28T00:16:22.820Z,18.90
2017-06-28T00:18:50.260Z,18.90
2017-06-28T00:21:17.332Z,18.90
2017-06-28T00:23:44.401Z,18.90
2017-06-28T00:26:10.758Z,18.90
2017-06-28T00:28:37.107Z,18.90
2017-06-28T00:31:03.728Z,18.90
2017-06-28T00:33:30.111Z,18.80
2017-06-28T00:35:56.445Z,18.90
2017-06-28T00:38:22.801Z,18.80
2017-06-28T00:40:49.147Z,18.70
2017-06-28T00:43:15.737Z,18.70
2017-06-28T00:45:42.066Z,18.60
2017-06-28T00:48:08.432Z,18.60
2017-06-28T00:50:34.789Z,18.60
2017-06-28T00:53:01.180Z,18.70
2017-06-28T00:55:27.875Z,18.70
2017-06-28T00:57:54.247Z,18.70
2017-06-28T01:02:53.819Z,18.70
2017-06-28T01:05:27.229Z,18.70
2017-06-28T01:07:53.954Z,18.70
2017-06-28T01:10:20.359Z,18.70
2017-06-28T01:12:46.748Z,18.70
2017-06-28T01:15:13.159Z,18.70
2017-06-28T01:17:39.548Z,18.70
2017-06-28T01:20:06.295Z,18.60
2017-06-28T01:22:32.685Z,18.60
2017-06-28T01:24:59.032Z,18.60
2017-06-28T01:27:25.414Z,18.50
2017-06-28T01:29:51.797Z,18.50
2017-06-28T01:32:18.656Z,18.50
2017-06-28T01:34:45.076Z,18.40
2017-06-28T01:37:11.460Z,18.40
2017-06-28T01:39:37.838Z,18.40
2017-06-28T01:42:04.248Z,18.30
2017-06-28T01:44:30.974Z,18.30
2017-06-28T01:46:57.378Z,18.30
2017-06-28T01:49:23.773Z,18.20
2017-06-28T01:51:50.187Z,18.20
2017-06-28T01:54:16.626Z,18.20
2017-06-28T01:56:43.317Z,18.10
2017-06-28T01:59:09.684Z,18.10
2017-06-28T02:01:36.050Z,18.00
2017-06-28T02:04:02.470Z,18.00
2017-06-28T02:06:29.584Z,17.90
2017-06-28T02:08:56.364Z,17.80
2017-06-28T02:11:22.720Z,17.90
2017-06-28T02:13:49.108Z,17.80
2017-06-28T02:16:15.464Z,17.80
2017-06-28T02:18:41.852Z,17.70
2017-06-28T02:21:08.501Z,17.70
2017-06-28T02:23:34.873Z,17.70
2017-06-28T02:26:01.241Z,17.80
2017-06-28T02:28:27.636Z,17.80
2017-06-28T02:30:53.995Z,17.90
2017-06-28T02:33:20.673Z,17.90
2017-06-28T02:35:47.048Z,17.90
2017-06-28T02:38:13.407Z,17.90
2017-06-28T02:40:39.798Z,17.90
2017-06-28T02:43:06.164Z,17.90
2017-06-28T02:45:32.909Z,17.90
2017-06-28T02:47:59.265Z,17.80
2017-06-28T02:50:26.359Z,17.90
2017-06-28T02:52:52.719Z,17.80
2017-06-28T02:55:19.103Z,17.80
2017-06-28T02:57:45.784Z,17.80
2017-06-28T03:00:12.191Z,17.80
2017-06-28T03:02:38.517Z,17.80
2017-06-28T03:05:04.888Z,17.80
2017-06-28T03:07:31.288Z,17.90
2017-06-28T03:09:57.947Z,17.90
2017-06-28T03:12:24.292Z,17.90
2017-06-28T03:14:50.715Z,17.90
2017-06-28T03:17:17.844Z,17.90
2017-06-28T03:19:44.211Z,17.90
2017-06-28T03:22:10.577Z,17.90
2017-06-28T03:24:37.234Z,17.90
2017-06-28T03:27:03.622Z,17.90
2017-06-28T03:29:30.045Z,18.00
2017-06-28T03:31:56.776Z,18.00
2017-06-28T03:34:23.852Z,18.00
2017-06-28T03:36:50.217Z,18.00
2017-06-28T03:39:16.626Z,18.00
2017-06-28T03:41:43.011Z,18.00
2017-06-28T03:44:09.728Z,18.00
2017-06-28T03:46:36.084Z,18.00
2017-06-28T03:49:02.433Z,18.00
2017-06-28T03:51:28.824Z,18.00
2017-06-28T03:53:55.193Z,18.00
2017-06-28T03:56:21.889Z,18.00
2017-06-28T03:58:48.973Z,18.10
2017-06-28T04:01:15.357Z,18.00
2017-06-28T04:03:41.745Z,18.10
2017-06-28T04:06:08.109Z,18.10
2017-06-28T04:08:34.789Z,18.20
2017-06-28T04:11:01.153Z,18.20
2017-06-28T04:13:27.523Z,18.20
2017-06-28T04:15:53.876Z,18.20
2017-06-28T04:18:20.225Z,18.30
2017-06-28T04:20:46.906Z,18.30
2017-06-28T04:23:13.356Z,18.30
2017-06-28T04:25:39.717Z,18.30
2017-06-28T04:28:06.093Z,18.40
2017-06-28T04:30:32.440Z,18.50
2017-06-28T04:32:59.938Z,18.50
2017-06-28T04:35:26.296Z,18.50
2017-06-28T04:37:52.657Z,18.60
2017-06-28T04:40:19.781Z,18.70
2017-06-28T04:42:46.137Z,18.70
2017-06-28T04:45:12.830Z,18.80
2017-06-28T04:47:39.197Z,18.90
2017-06-28T04:50:05.559Z,19.00
2017-06-28T04:52:31.942Z,19.00
2017-06-28T04:54:58.316Z,19.10
2017-06-28T04:57:24.990Z,19.20
2017-06-28T04:59:51.316Z,19.30
2017-06-28T05:02:17.690Z,19.30
2017-06-28T05:04:44.780Z,19.40
2017-06-28T05:07:11.140Z,19.40
2017-06-28T05:09:37.848Z,19.40
2017-06-28T05:12:04.211Z,19.40
2017-06-28T05:14:30.586Z,19.40
2017-06-28T05:16:56.944Z,19.40
2017-06-28T05:19:23.269Z,19.40
2017-06-28T05:21:50.025Z,19.40
2017-06-28T05:24:16.409Z,19.30
2017-06-28T05:26:42.750Z,19.40
2017-06-28T05:29:09.091Z,19.30
2017-06-28T05:31:35.421Z,19.40
2017-06-28T05:34:02.098Z,19.50
2017-06-28T05:36:29.181Z,19.70
2017-06-28T05:38:55.533Z,19.70
2017-06-28T05:41:21.929Z,19.80
2017-06-28T05:43:48.258Z,19.90
2017-06-28T05:46:15.673Z,19.90
2017-06-28T05:48:42.000Z,19.80
2017-06-28T05:51:08.362Z,19.60
2017-06-28T05:53:34.744Z,19.60
2017-06-28T05:56:01.074Z,19.70
2017-06-28T05:58:27.686Z,19.80
2017-06-28T06:00:54.041Z,19.80
2017-06-28T06:03:20.358Z,19.90
2017-06-28T06:05:46.703Z,19.90
2017-06-28T06:08:13.126Z,19.90
2017-06-28T06:10:39.798Z,19.90
2017-06-28T06:13:06.111Z,19.90
2017-06-28T06:15:32.454Z,19.90
2017-06-28T06:17:58.866Z,19.90
2017-06-28T06:20:25.226Z,20.00
2017-06-28T06:22:52.668Z,20.30
2017-06-28T06:25:19.023Z,20.30
2017-06-28T06:27:46.128Z,20.50
2017-06-28T06:30:12.488Z,20.40
2017-06-28T06:32:38.955Z,20.50
2017-06-28T06:35:05.598Z,20.60
2017-06-28T06:37:31.928Z,20.70
2017-06-28T06:39:58.296Z,20.80
2017-06-28T06:42:24.659Z,20.80
2017-06-28T06:44:51.713Z,20.90
2017-06-28T06:47:18.419Z,20.90
2017-06-28T06:49:44.747Z,20.90
2017-06-28T06:52:11.061Z,20.90
2017-06-28T06:54:37.414Z,20.80
2017-06-28T06:57:04.545Z,20.80
2017-06-28T06:59:31.209Z,20.80
2017-06-28T07:01:57.533Z,20.80
2017-06-28T07:04:23.903Z,20.90
2017-06-28T07:06:50.251Z,20.90
2017-06-28T07:09:16.595Z,20.90
2017-06-28T07:11:43.202Z,20.90
2017-06-28T07:14:09.515Z,20.90
2017-06-28T07:16:35.846Z,20.90
2017-06-28T07:19:02.186Z,21.00
2017-06-28T07:21:28.512Z,21.00
2017-06-28T07:23:55.203Z,21.00
2017-06-28T07:26:21.539Z,21.00
2017-06-28T07:28:47.859Z,21.00
2017-06-28T07:31:14.931Z,20.90
2017-06-28T07:33:41.311Z,20.90
2017-06-28T07:36:07.970Z,20.90
2017-06-28T07:38:34.313Z,21.00
2017-06-28T07:41:00.738Z,21.00
2017-06-28T07:43:27.095Z,21.10
2017-06-28T07:45:53.443Z,21.20
2017-06-28T07:48:20.136Z,21.20
2017-06-28T07:50:46.447Z,21.30
2017-06-28T07:53:12.787Z,21.40
2017-06-28T07:55:39.129Z,21.50
2017-06-28T07:58:05.457Z,21.60
2017-06-28T08:00:32.095Z,21.60
2017-06-28T08:02:58.415Z,21.60
2017-06-28T08:05:24.751Z,21.60
2017-06-28T08:07:51.850Z,21.60
2017-06-28T08:10:18.183Z,21.60
2017-06-28T08:12:44.512Z,21.60
2017-06-28T08:15:11.133Z,21.70
2017-06-28T08:17:37.450Z,21.70
2017-06-28T08:20:03.763Z,21.90
2017-06-28T08:22:30.459Z,22.00
2017-06-28T08:24:57.922Z,22.50
2017-06-28T08:27:25.001Z,22.60
2017-06-28T08:29:51.710Z,22.60
2017-06-28T08:32:18.158Z,22.70
2017-06-28T08:34:44.542Z,22.80
2017-06-28T08:37:10.961Z,23.00
2017-06-28T08:39:37.300Z,23.00
2017-06-28T08:42:03.981Z,23.00
2017-06-28T08:44:30.307Z,22.90
2017-06-28T08:46:57.757Z,22.90
2017-06-28T08:49:24.139Z,22.90
2017-06-28T08:51:50.501Z,23.00
2017-06-28T08:54:17.118Z,23.00
2017-06-28T08:56:43.460Z,23.10
2017-06-28T08:59:09.833Z,23.10
2017-06-28T09:01:36.326Z,23.00
2017-06-28T09:04:02.737Z,23.00
2017-06-28T09:06:29.402Z,23.10
2017-06-28T09:08:55.942Z,23.10
2017-06-28T09:11:22.276Z,23.20
2017-06-28T09:13:49.377Z,23.30
2017-06-28T09:16:15.716Z,23.30
2017-06-28T09:18:42.359Z,23.40
2017-06-28T09:21:08.713Z,23.40
2017-06-28T09:23:35.785Z,23.60
2017-06-28T09:26:02.112Z,23.60
2017-06-28T09:28:28.458Z,23.70
2017-06-28T09:30:55.062Z,23.90
2017-06-28T09:33:22.189Z,24.10
2017-06-28T09:35:49.317Z,24.30
2017-06-28T09:38:15.661Z,24.20
2017-06-28T09:40:42.007Z,24.30
2017-06-28T09:43:09.490Z,24.50
2017-06-28T09:45:35.888Z,24.50
2017-06-28T09:48:02.249Z,24.60
2017-06-28T09:50:28.648Z,24.60
2017-06-28T09:52:54.999Z,24.60
2017-06-28T09:55:21.662Z,24.50
2017-06-28T09:57:48.013Z,24.40
2017-06-28T10:00:14.403Z,24.50
2017-06-28T10:02:40.754Z,24.80
2017-06-28T10:05:07.155Z,25.30
2017-06-28T10:07:33.871Z,25.80
2017-06-28T10:10:00.242Z,26.30
2017-06-28T10:12:26.606Z,26.70
2017-06-28T10:14:53.001Z,26.70
2017-06-28T10:17:19.346Z,26.40
2017-06-28T10:19:46.020Z,26.40
2017-06-28T10:22:12.356Z,26.60
2017-06-28T10:24:38.673Z,26.80
2017-06-28T10:27:04.992Z,26.90
2017-06-28T10:29:31.323Z,26.80
2017-06-28T10:31:57.974Z,26.60
2017-06-28T10:34:24.333Z,26.10
2017-06-28T10:36:50.692Z,25.70
2017-06-28T10:39:17.113Z,25.40
2017-06-28T10:41:43.446Z,25.10
2017-06-28T10:44:10.077Z,24.80
2017-06-28T10:46:36.450Z,24.60
2017-06-28T10:49:02.792Z,24.40
2017-06-28T10:51:29.131Z,24.30
2017-06-28T10:53:56.236Z,24.60
2017-06-28T10:56:22.987Z,24.50
2017-06-28T10:58:49.344Z,24.90
2017-06-28T11:01:15.702Z,25.30
2017-06-28T11:03:42.063Z,25.60
2017-06-28T11:06:08.403Z,25.80
2017-06-28T11:08:35.008Z,25.90
2017-06-28T11:11:01.402Z,25.70
2017-06-28T11:13:28.521Z,24.80
2017-06-28T11:15:54.859Z,24.80
2017-06-28T11:18:21.233Z,24.60
2017-06-28T11:20:47.949Z,24.30
2017-06-28T11:23:15.082Z,24.00
2017-06-28T11:25:41.426Z,23.80
2017-06-28T11:28:08.553Z,23.40
2017-06-28T11:30:34.914Z,23.40
2017-06-28T11:33:01.617Z,23.20
2017-06-28T11:35:27.938Z,23.00
2017-06-28T11:37:54.317Z,22.90
2017-06-28T11:40:20.692Z,22.90
2017-06-28T11:42:47.027Z,23.00
2017-06-28T11:45:13.892Z,23.20
2017-06-28T11:47:40.974Z,23.90
2017-06-28T11:50:07.351Z,23.90
2017-06-28T11:52:33.763Z,24.40
2017-06-28T11:55:00.731Z,24.90
2017-06-28T11:57:28.177Z,25.40
2017-06-28T11:59:54.838Z,25.70
2017-06-28T12:02:21.932Z,26.20
2017-06-28T12:04:48.608Z,26.20
2017-06-28T12:07:14.953Z,26.50
2017-06-28T12:09:41.283Z,26.60
2017-06-28T12:12:08.407Z,26.70
2017-06-28T12:14:34.771Z,26.70
2017-06-28T12:17:01.405Z,26.70
2017-06-28T12:19:27.733Z,26.70
2017-06-28T12:21:54.807Z,26.40
2017-06-28T12:24:21.139Z,26.40
2017-06-28T12:26:47.517Z,26.20
2017-06-28T12:29:14.258Z,26.00
2017-06-28T12:31:41.324Z,25.50
2017-06-28T12:34:07.751Z,25.50
2017-06-28T12:36:34.095Z,25.30
2017-06-28T12:39:00.450Z,25.10
2017-06-28T12:41:27.092Z,25.00
2017-06-28T12:43:53.421Z,25.00
2017-06-28T12:46:19.747Z,25.00
2017-06-28T12:48:46.081Z,25.10
2017-06-28T12:51:12.425Z,25.10
2017-06-28T12:53:39.065Z,25.20
2017-06-28T12:56:05.396Z,25.10
2017-06-28T12:58:31.707Z,25.10
2017-06-28T13:00:58.082Z,25.00
2017-06-28T13:03:24.456Z,25.00
2017-06-28T13:05:51.115Z,25.00
2017-06-28T13:08:17.515Z,25.00
2017-06-28T13:10:51.035Z,25.00
2017-06-28T13:13:17.381Z,25.30
2017-06-28T13:15:43.717Z,26.30
2017-06-28T13:18:10.093Z,27.50
2017-06-28T13:20:36.420Z,28.60
2017-06-28T13:23:03.209Z,29.50
2017-06-28T13:25:29.529Z,30.10
2017-06-28T13:27:55.867Z,30.60
2017-06-28T13:30:22.191Z,31.00
2017-06-28T13:32:48.569Z,31.50
2017-06-28T13:35:15.267Z,32.00
2017-06-28T13:37:41.600Z,32.20
2017-06-28T13:40:08.706Z,31.50
2017-06-28T13:42:35.081Z,31.40
2017-06-28T13:45:02.142Z,30.40
2017-06-28T13:47:28.998Z,30.30
2017-06-28T13:49:55.381Z,29.80
2017-06-28T13:52:21.715Z,29.50
2017-06-28T13:54:48.048Z,29.40
2017-06-28T13:57:14.399Z,29.40
2017-06-28T13:59:41.789Z,29.40
2017-06-28T14:02:08.155Z,29.40
2017-06-28T14:04:34.494Z,29.50
2017-06-28T14:07:01.597Z,29.60
2017-06-28T14:09:27.958Z,29.50
2017-06-28T14:11:54.819Z,29.70
2017-06-28T14:14:21.862Z,30.10
2017-06-28T14:16:48.951Z,30.20
2017-06-28T14:19:16.194Z,30.20
2017-06-28T14:21:42.514Z,30.40
2017-06-28T14:24:08.872Z,30.40
2017-06-28T14:26:35.235Z,30.40
2017-06-28T14:29:01.607Z,30.40
2017-06-28T14:31:27.917Z,30.20
2017-06-28T14:33:54.571Z,30.10
2017-06-28T14:36:20.919Z,30.00
2017-06-28T14:38:47.262Z,29.80
2017-06-28T14:41:13.631Z,29.80
2017-06-28T14:43:40.700Z,29.50
2017-06-28T14:46:07.333Z,29.40
2017-06-28T14:48:33.685Z,29.10
2017-06-28T14:51:00.079Z,28.70
2017-06-28T14:53:27.194Z,28.10
2017-06-28T14:55:53.535Z,28.00
2017-06-28T14:58:20.192Z,27.80
2017-06-28T15:00:46.524Z,27.50
2017-06-28T15:03:13.689Z,27.10
2017-06-28T15:05:40.057Z,27.10
2017-06-28T15:08:06.410Z,26.90
2017-06-28T15:10:33.065Z,26.60
2017-06-28T15:12:59.431Z,26.50
2017-06-28T15:15:25.773Z,26.30
2017-06-28T15:17:52.184Z,26.20
2017-06-28T15:20:18.537Z,26.10
2017-06-28T15:22:45.183Z,25.90
2017-06-28T15:25:11.515Z,25.80
2017-06-28T15:27:37.857Z,25.60
2017-06-28T15:30:04.214Z,25.50
2017-06-28T15:32:30.559Z,25.40
2017-06-28T15:34:57.247Z,25.30
2017-06-28T15:37:23.552Z,25.20
2017-06-28T15:39:49.873Z,25.10
2017-06-28T15:42:16.226Z,25.00
2017-06-28T15:44:49.449Z,24.80
2017-06-28T15:47:16.176Z,24.70
2017-06-28T15:49:42.535Z,24.70
2017-06-28T15:52:08.891Z,24.70
2017-06-28T15:54:35.283Z,24.60
2017-06-28T15:57:01.678Z,24.50
2017-06-28T15:59:28.321Z,24.50
2017-06-28T16:01:54.675Z,24.40
2017-06-28T16:04:21.041Z,24.30
2017-06-28T16:06:47.382Z,24.10
2017-06-28T16:09:13.756Z,24.00
2017-06-28T16:11:41.146Z,23.70
2017-06-28T16:14:07.514Z,23.60
2017-06-28T16:16:33.848Z,23.40
2017-06-28T16:19:00.356Z,23.10
2017-06-28T16:21:26.738Z,22.90
2017-06-28T16:23:54.143Z,22.40
2017-06-28T16:26:20.477Z,22.40
2017-06-28T16:28:46.872Z,22.10
2017-06-28T16:31:13.270Z,21.80
2017-06-28T16:33:39.687Z,21.50
2017-06-28T16:36:06.345Z,21.40
2017-06-28T16:38:35.279Z,21.30
2017-06-28T16:41:01.664Z,21.30
2017-06-28T16:43:27.945Z,21.30
2017-06-28T16:45:54.363Z,21.30
2017-06-28T16:48:21.064Z,21.20
2017-06-28T16:50:47.460Z,21.20
2017-06-28T16:53:13.820Z,21.10
2017-06-28T16:55:40.983Z,21.00
2017-06-28T16:58:07.350Z,20.90
2017-06-28T17:00:34.140Z,20.90
2017-06-28T17:03:01.215Z,20.80
2017-06-28T17:05:27.597Z,20.80
2017-06-28T17:07:54.004Z,20.80
2017-06-28T17:10:20.322Z,20.70
2017-06-28T17:12:46.996Z,20.60
2017-06-28T17:15:14.731Z,20.30
2017-06-28T17:17:41.166Z,20.30
2017-06-28T17:20:07.505Z,20.10
2017-06-28T17:22:33.911Z,20.00
2017-06-28T17:25:00.563Z,19.90
2017-06-28T17:27:26.900Z,20.00
2017-06-28T17:29:53.301Z,20.10
2017-06-28T17:32:19.678Z,20.20
2017-06-28T17:34:46.774Z,20.40
2017-06-28T17:37:13.575Z,20.30
2017-06-28T17:39:42.158Z,20.40
2017-06-28T17:42:09.274Z,20.40
2017-06-28T17:44:35.603Z,20.40
2017-06-28T17:47:01.967Z,20.20
2017-06-28T17:49:28.350Z,20.20
2017-06-28T17:51:54.699Z,20.30
2017-06-28T17:54:21.084Z,20.30
2017-06-28T17:56:47.507Z,20.30
2017-06-28T17:59:13.863Z,20.30
2017-06-28T18:01:40.241Z,20.20
2017-06-28T18:04:07.328Z,20.10
2017-06-28T18:06:34.016Z,20.00
2017-06-28T18:09:01.252Z,19.90
2017-06-28T18:11:28.350Z,19.90
2017-06-28T18:13:54.749Z,19.90
2017-06-28T18:16:21.858Z,19.80
2017-06-28T18:18:48.311Z,19.80
2017-06-28T18:21:14.735Z,19.80
2017-06-28T18:23:41.491Z,19.80
2017-06-28T18:26:07.888Z,19.80
2017-06-28T18:28:34.287Z,19.70
2017-06-28T18:31:00.693Z,19.60
2017-06-28T18:33:27.825Z,19.40
2017-06-28T18:35:55.002Z,19.40
2017-06-28T18:38:21.431Z,19.30
2017-06-28T18:40:48.890Z,19.30
2017-06-28T18:43:15.311Z,19.30
2017-06-28T18:48:15.552Z,19.40
2017-06-28T18:50:42.028Z,19.50
2017-06-28T18:53:08.487Z,19.50
2017-06-28T18:55:35.626Z,19.20
2017-06-28T18:58:02.311Z,19.20
2017-06-28T19:00:28.708Z,19.20
2017-06-28T19:02:55.133Z,19.10
2017-06-28T19:05:21.638Z,19.00
2017-06-28T19:07:48.066Z,19.00
2017-06-28T19:10:14.503Z,18.90
2017-06-28T19:12:40.980Z,18.80
2017-06-28T19:15:08.009Z,18.60
2017-06-28T19:17:34.537Z,18.60
2017-06-28T19:20:01.226Z,18.50
2017-06-28T19:22:27.715Z,18.40
2017-06-28T19:24:54.103Z,18.30
2017-06-28T19:27:20.533Z,18.20
2017-06-28T19:29:46.902Z,18.10
2017-06-28T19:32:13.598Z,18.00
2017-06-28T19:34:40.028Z,18.00
2017-06-28T19:37:06.419Z,18.10
2017-06-28T19:39:33.601Z,18.10
2017-06-28T19:42:00.005Z,18.00
2017-06-28T19:44:27.116Z,18.00
2017-06-28T19:46:53.500Z,18.00
2017-06-28T19:49:20.163Z,18.00
2017-06-28T19:51:46.547Z,18.00
2017-06-28T19:54:13.720Z,17.90
2017-06-28T19:56:40.123Z,17.90
2017-06-28T19:59:07.294Z,17.90
2017-06-28T20:01:34.112Z,17.80
2017-06-28T20:04:01.221Z,17.80
2017-06-28T20:06:27.616Z,17.80
2017-06-28T20:08:54.039Z,17.80
2017-06-28T20:11:20.395Z,17.80
2017-06-28T20:13:47.071Z,17.70
2017-06-28T20:16:13.506Z,17.80
2017-06-28T20:18:39.923Z,17.70
2017-06-28T20:21:06.308Z,17.70
2017-06-28T20:23:32.657Z,17.60
2017-06-28T20:25:59.059Z,17.50
2017-06-28T20:28:25.390Z,17.50
2017-06-28T20:30:52.098Z,17.50
2017-06-28T20:33:18.440Z,17.50
2017-06-28T20:35:45.509Z,17.50
2017-06-28T20:38:11.893Z,17.40
2017-06-28T20:40:38.990Z,17.30
2017-06-28T20:43:05.346Z,17.30
2017-06-28T20:45:31.713Z,17.20
2017-06-28T20:47:58.556Z,17.10
2017-06-28T20:50:24.922Z,17.00
2017-06-28T20:52:51.279Z,16.90
2017-06-28T20:55:17.658Z,16.90
2017-06-28T20:57:44.034Z,16.80
2017-06-28T21:00:10.366Z,16.80
2017-06-28T21:02:36.700Z,16.70
2017-06-28T21:05:03.342Z,16.60
2017-06-28T21:07:29.703Z,16.60
2017-06-28T21:09:58.775Z,16.60
2017-06-28T21:12:25.161Z,16.70
2017-06-28T21:14:51.541Z,16.80
2017-06-28T21:17:18.037Z,16.80
2017-06-28T21:19:44.397Z,16.80
2017-06-28T21:22:11.044Z,16.90
2017-06-28T21:24:37.402Z,16.90
2017-06-28T21:27:03.756Z,16.90
2017-06-28T21:29:30.110Z,16.90
2017-06-28T21:31:56.477Z,17.00
2017-06-28T21:34:22.821Z,17.00
2017-06-28T21:36:49.113Z,17.00
2017-06-28T21:39:15.873Z,17.00
2017-06-28T21:41:42.243Z,17.00
2017-06-28T21:44:08.578Z,17.00
2017-06-28T21:46:34.961Z,17.00
2017-06-28T21:49:02.064Z,17.00
2017-06-28T21:51:28.396Z,17.00
2017-06-28T21:53:54.729Z,17.00
2017-06-28T21:56:21.363Z,16.90
2017-06-28T21:58:47.692Z,16.90
2017-06-28T22:01:14.783Z,16.90
2017-06-28T22:03:41.155Z,16.90
2017-06-28T22:06:07.497Z,16.90
2017-06-28T22:08:33.848Z,16.90
2017-06-28T22:11:00.996Z,16.90
2017-06-28T22:13:27.726Z,16.90
2017-06-28T22:15:54.089Z,16.80
2017-06-28T22:18:32.803Z,16.80
2017-06-28T22:20:59.170Z,16.70
2017-06-28T22:23:26.688Z,16.70
2017-06-28T22:25:53.092Z,16.60
2017-06-28T22:28:19.447Z,16.60
2017-06-28T22:30:45.851Z,16.60
2017-06-28T22:33:12.210Z,16.60
2017-06-28T22:35:38.534Z,16.60
2017-06-28T22:38:05.629Z,16.50
2017-06-28T22:40:32.315Z,16.50
2017-06-28T22:42:59.406Z,16.40
2017-06-28T22:45:25.762Z,16.30
2017-06-28T22:47:52.131Z,16.40
2017-06-28T22:50:18.504Z,16.40
2017-06-28T22:52:44.859Z,16.40
2017-06-28T22:55:11.224Z,16.50
2017-06-28T22:57:37.922Z,16.50
2017-06-28T23:00:04.282Z,16.60
2017-06-28T23:02:31.391Z,16.60
2017-06-28T23:04:57.759Z,16.60
2017-06-28T23:07:24.125Z,16.60
2017-06-28T23:09:50.490Z,16.60
2017-06-28T23:12:16.841Z,16.60
2017-06-28T23:14:44.240Z,16.60
2017-06-28T23:17:10.587Z,16.60
2017-06-28T23:19:36.930Z,16.60
2017-06-28T23:22:03.328Z,16.60
2017-06-28T23:24:29.689Z,16.60
2017-06-28T23:26:56.069Z,16.60
2017-06-28T23:29:22.452Z,16.50
2017-06-28T23:31:49.095Z,16.50
2017-06-28T23:34:15.764Z,16.40
2017-06-28T23:36:42.124Z,16.50
2017-06-28T23:39:08.465Z,16.60
2017-06-28T23:41:34.813Z,16.60
2017-06-28T23:44:01.176Z,16.70
2017-06-28T23:49:00.859Z,16.80
2017-06-28T23:51:27.211Z,16.80
2017-06-28T23:53:54.283Z,16.80
2017-06-28T23:56:20.552Z,16.80
2017-06-28T23:58:46.903Z,16.80
